sensor_id;sensor_type;location;lat;lon;timestamp;pressure;altitude;pressure_sealevel;temperature;humidity
72721;BME280;60835;50.974;10.322;2023-04-19T00:01:35;95141.72;;;9.07;100.00
72721;BME280;60835;50.974;10.322;2023-04-19T00:04:02;95181.69;;;9.04;100.00
72721;BME280;60835;50.974;10.322;2023-04-19T00:06:28;95209.25;;;9.08;100.00
72721;BME280;60835;50.974;10.322;2023-04-19T00:08:55;95240.28;;;9.06;100.00
72721;BME280;60835;50.974;10.322;2023-04-19T00:11:23;95257.72;;;9.07;100.00
72721;BME280;60835;50.974;10.322;2023-04-19T00:13:49;95270.59;;;9.15;100.00
72721;BME280;60835;50.974;10.322;2023-04-19T00:16:16;95332.41;;;9.01;100.00
72721;BME280;60835;50.974;10.322;2023-04-19T00:18:43;95344.72;;;9.07;100.00
72721;BME280;60835;50.974;10.322;2023-04-19T00:21:09;95369.28;;;9.07;100.00
72721;BME280;60835;50.974;10.322;2023-04-19T00:23:36;95395.84;;;9.06;100.00
72721;BME280;60835;50.974;10.322;2023-04-19T00:26:03;95402.06;;;9.11;100.00
72721;BME280;60835;50.974;10.322;2023-04-19T00:28:30;95446.81;;;9.00;100.00
72721;BME280;60835;50.974;10.322;2023-04-19T00:30:56;95460.00;;;9.00;100.00
72721;BME280;60835;50.974;10.322;2023-04-19T00:33:23;95455.03;;;9.10;100.00
72721;BME280;60835;50.974;10.322;2023-04-19T00:35:50;95472.72;;;9.03;100.00
72721;BME280;60835;50.974;10.322;2023-04-19T00:38:16;95480.63;;;9.03;100.00
72721;BME280;60835;50.974;10.322;2023-04-19T00:40:43;95494.59;;;9.10;100.00
72721;BME280;60835;50.974;10.322;2023-04-19T00:43:10;95499.44;;;9.13;100.00
72721;BME280;60835;50.974;10.322;2023-04-19T00:45:36;95531.97;;;9.00;100.00
72721;BME280;60835;50.974;10.322;2023-04-19T00:48:03;95530.41;;;8.93;100.00
72721;BME280;60835;50.974;10.322;2023-04-19T00:50:30;95501.53;;;9.04;100.00
72721;BME280;60835;50.974;10.322;2023-04-19T00:52:57;95490.16;;;9.04;100.00
72721;BME280;60835;50.974;10.322;2023-04-19T00:55:27;95492.66;;;8.99;100.00
72721;BME280;60835;50.974;10.322;2023-04-19T00:57:54;95484.59;;;8.94;100.00
72721;BME280;60835;50.974;10.322;2023-04-19T01:00:21;95467.91;;;9.00;100.00
72721;BME280;60835;50.974;10.322;2023-04-19T01:02:48;95456.47;;;9.06;100.00
72721;BME280;60835;50.974;10.322;2023-04-19T01:05:15;95479.25;;;9.00;100.00
72721;BME280;60835;50.974;10.322;2023-04-19T01:07:42;95518.28;;;8.92;100.00
72721;BME280;60835;50.974;10.322;2023-04-19T01:10:09;95553.13;;;8.94;100.00
72721;BME280;60835;50.974;10.322;2023-04-19T01:12:36;95643.19;;;8.91;100.00
72721;BME280;60835;50.974;10.322;2023-04-19T01:15:02;95770.53;;;8.85;100.00
72721;BME280;60835;50.974;10.322;2023-04-19T01:17:30;95890.81;;;8.86;100.00
72721;BME280;60835;50.974;10.322;2023-04-19T01:19:58;95989.97;;;8.87;100.00
72721;BME280;60835;50.974;10.322;2023-04-19T01:22:25;96128.03;;;8.79;100.00
72721;BME280;60835;50.974;10.322;2023-04-19T01:24:51;96251.53;;;8.76;100.00
72721;BME280;60835;50.974;10.322;2023-04-19T01:27:18;96364.50;;;8.79;100.00
72721;BME280;60835;50.974;10.322;2023-04-19T01:29:45;96483.94;;;8.79;100.00
72721;BME280;60835;50.974;10.322;2023-04-19T01:32:12;96574.75;;;8.77;100.00
72721;BME280;60835;50.974;10.322;2023-04-19T01:34:39;96633.66;;;8.84;100.00
72721;BME280;60835;50.974;10.322;2023-04-19T01:37:06;96737.59;;;8.75;100.00
72721;BME280;60835;50.974;10.322;2023-04-19T01:39:33;96807.41;;;8.79;100.00
72721;BME280;60835;50.974;10.322;2023-04-19T01:41:59;96874.06;;;8.73;100.00
72721;BME280;60835;50.974;10.322;2023-04-19T01:44:26;96926.78;;;8.73;100.00
72721;BME280;60835;50.974;10.322;2023-04-19T01:46:54;96985.13;;;8.70;100.00
72721;BME280;60835;50.974;10.322;2023-04-19T01:49:21;97048.88;;;8.73;100.00
72721;BME280;60835;50.974;10.322;2023-04-19T01:51:48;97103.13;;;8.68;100.00
72721;BME280;60835;50.974;10.322;2023-04-19T01:54:14;97146.94;;;8.69;100.00
72721;BME280;60835;50.974;10.322;2023-04-19T01:56:41;97185.84;;;8.67;100.00
72721;BME280;60835;50.974;10.322;2023-04-19T01:59:08;97239.25;;;8.61;100.00
72721;BME280;60835;50.974;10.322;2023-04-19T02:01:34;97285.91;;;8.60;100.00
72721;BME280;60835;50.974;10.322;2023-04-19T02:04:01;97345.38;;;8.63;100.00
72721;BME280;60835;50.974;10.322;2023-04-19T02:06:29;97394.44;;;8.55;100.00
72721;BME280;60835;50.974;10.322;2023-04-19T02:08:57;97367.25;;;8.71;100.00
72721;BME280;60835;50.974;10.322;2023-04-19T02:11:23;97318.81;;;8.64;100.00
72721;BME280;60835;50.974;10.322;2023-04-19T02:13:53;97263.97;;;8.60;100.00
72721;BME280;60835;50.974;10.322;2023-04-19T02:16:20;97237.78;;;8.50;100.00
72721;BME280;60835;50.974;10.322;2023-04-19T02:18:47;97303.88;;;8.48;100.00
72721;BME280;60835;50.974;10.322;2023-04-19T02:21:14;97366.47;;;8.46;100.00
72721;BME280;60835;50.974;10.322;2023-04-19T02:23:41;97425.78;;;8.42;100.00
72721;BME280;60835;50.974;10.322;2023-04-19T02:26:08;97483.41;;;8.37;100.00
72721;BME280;60835;50.974;10.322;2023-04-19T02:28:34;97529.56;;;8.41;100.00
72721;BME280;60835;50.974;10.322;2023-04-19T02:31:03;97587.03;;;8.38;100.00
72721;BME280;60835;50.974;10.322;2023-04-19T02:33:30;97627.06;;;8.33;100.00
72721;BME280;60835;50.974;10.322;2023-04-19T02:35:56;97610.56;;;8.39;100.00
72721;BME280;60835;50.974;10.322;2023-04-19T02:38:23;97586.53;;;8.42;100.00
72721;BME280;60835;50.974;10.322;2023-04-19T02:40:50;97558.56;;;8.49;100.00
72721;BME280;60835;50.974;10.322;2023-04-19T02:43:17;97534.84;;;8.49;100.00
72721;BME280;60835;50.974;10.322;2023-04-19T02:45:43;97535.63;;;8.42;100.00
72721;BME280;60835;50.974;10.322;2023-04-19T02:48:10;97526.59;;;8.44;100.00
72721;BME280;60835;50.974;10.322;2023-04-19T02:50:36;97513.06;;;8.47;100.00
72721;BME280;60835;50.974;10.322;2023-04-19T02:53:06;97517.88;;;8.44;100.00
72721;BME280;60835;50.974;10.322;2023-04-19T02:55:33;97511.44;;;8.46;100.00
72721;BME280;60835;50.974;10.322;2023-04-19T02:57:59;97505.03;;;8.49;100.00
72721;BME280;60835;50.974;10.322;2023-04-19T03:00:26;97522.00;;;8.46;100.00
72721;BME280;60835;50.974;10.322;2023-04-19T03:02:52;97541.41;;;8.45;100.00
72721;BME280;60835;50.974;10.322;2023-04-19T03:05:21;97573.03;;;8.45;100.00
72721;BME280;60835;50.974;10.322;2023-04-19T03:07:51;97602.34;;;8.42;100.00
72721;BME280;60835;50.974;10.322;2023-04-19T03:10:18;97611.28;;;8.49;100.00
72721;BME280;60835;50.974;10.322;2023-04-19T03:12:45;97684.06;;;8.42;100.00
72721;BME280;60835;50.974;10.322;2023-04-19T03:15:12;97758.13;;;8.31;100.00
72721;BME280;60835;50.974;10.322;2023-04-19T03:17:38;97828.78;;;8.28;100.00
72721;BME280;60835;50.974;10.322;2023-04-19T03:20:05;97887.59;;;8.28;100.00
72721;BME280;60835;50.974;10.322;2023-04-19T03:22:35;97931.38;;;8.29;100.00
72721;BME280;60835;50.974;10.322;2023-04-19T03:25:02;97944.63;;;8.37;100.00
72721;BME280;60835;50.974;10.322;2023-04-19T03:27:29;97957.22;;;8.26;100.00
72721;BME280;60835;50.974;10.322;2023-04-19T03:29:56;97979.41;;;8.23;100.00
72721;BME280;60835;50.974;10.322;2023-04-19T03:32:23;97965.34;;;8.32;100.00
72721;BME280;60835;50.974;10.322;2023-04-19T03:34:51;97984.09;;;8.29;100.00
72721;BME280;60835;50.974;10.322;2023-04-19T03:37:18;97996.00;;;8.33;100.00
72721;BME280;60835;50.974;10.322;2023-04-19T03:39:45;98041.88;;;8.13;100.00
72721;BME280;60835;50.974;10.322;2023-04-19T03:42:15;98053.03;;;8.07;100.00
72721;BME280;60835;50.974;10.322;2023-04-19T03:44:42;98069.41;;;8.01;100.00
72721;BME280;60835;50.974;10.322;2023-04-19T03:47:08;98068.75;;;7.99;100.00
72721;BME280;60835;50.974;10.322;2023-04-19T03:49:35;98074.59;;;7.93;100.00
72721;BME280;60835;50.974;10.322;2023-04-19T03:52:01;98062.47;;;8.00;100.00
72721;BME280;60835;50.974;10.322;2023-04-19T03:54:28;98066.00;;;7.91;100.00
72721;BME280;60835;50.974;10.322;2023-04-19T03:56:55;98060.84;;;7.99;100.00
72721;BME280;60835;50.974;10.322;2023-04-19T03:59:22;98068.88;;;7.97;100.00
72721;BME280;60835;50.974;10.322;2023-04-19T04:01:49;98066.91;;;7.99;100.00
72721;BME280;60835;50.974;10.322;2023-04-19T04:04:19;98089.25;;;7.95;100.00
72721;BME280;60835;50.974;10.322;2023-04-19T04:06:47;98106.09;;;7.85;100.00
72721;BME280;60835;50.974;10.322;2023-04-19T04:09:13;98113.88;;;7.77;100.00
72721;BME280;60835;50.974;10.322;2023-04-19T04:11:40;98110.00;;;7.81;100.00
72721;BME280;60835;50.974;10.322;2023-04-19T04:14:06;98103.28;;;7.96;100.00
72721;BME280;60835;50.974;10.322;2023-04-19T04:16:33;98108.66;;;7.94;100.00
72721;BME280;60835;50.974;10.322;2023-04-19T04:19:00;98144.41;;;7.70;100.00
72721;BME280;60835;50.974;10.322;2023-04-19T04:21:27;98207.63;;;7.51;100.00
72721;BME280;60835;50.974;10.322;2023-04-19T04:23:53;98266.91;;;7.35;100.00
72721;BME280;60835;50.974;10.322;2023-04-19T04:26:20;98293.78;;;7.29;100.00
72721;BME280;60835;50.974;10.322;2023-04-19T04:28:47;98323.13;;;7.34;100.00
72721;BME280;60835;50.974;10.322;2023-04-19T04:31:14;98338.25;;;7.32;100.00
72721;BME280;60835;50.974;10.322;2023-04-19T04:33:43;98358.31;;;7.33;100.00
72721;BME280;60835;50.974;10.322;2023-04-19T04:36:11;98382.94;;;7.23;100.00
72721;BME280;60835;50.974;10.322;2023-04-19T04:38:38;98432.75;;;7.05;100.00
72721;BME280;60835;50.974;10.322;2023-04-19T04:41:04;98426.69;;;7.14;100.00
72721;BME280;60835;50.974;10.322;2023-04-19T04:43:31;98443.00;;;7.08;100.00
72721;BME280;60835;50.974;10.322;2023-04-19T04:45:58;98452.81;;;7.06;100.00
72721;BME280;60835;50.974;10.322;2023-04-19T04:48:26;98452.91;;;6.95;100.00
72721;BME280;60835;50.974;10.322;2023-04-19T04:50:53;98471.72;;;6.91;100.00
72721;BME280;60835;50.974;10.322;2023-04-19T04:53:20;98471.56;;;6.92;100.00
72721;BME280;60835;50.974;10.322;2023-04-19T04:55:46;98465.91;;;6.97;100.00
72721;BME280;60835;50.974;10.322;2023-04-19T04:58:13;98473.06;;;6.85;100.00
72721;BME280;60835;50.974;10.322;2023-04-19T05:00:40;98470.00;;;6.80;100.00
72721;BME280;60835;50.974;10.322;2023-04-19T05:03:06;98477.69;;;6.93;100.00
72721;BME280;60835;50.974;10.322;2023-04-19T05:05:33;98489.88;;;6.73;100.00
72721;BME280;60835;50.974;10.322;2023-04-19T05:08:00;98483.59;;;6.85;100.00
72721;BME280;60835;50.974;10.322;2023-04-19T05:10:27;98491.22;;;6.88;100.00
72721;BME280;60835;50.974;10.322;2023-04-19T05:12:54;98492.13;;;6.78;100.00
72721;BME280;60835;50.974;10.322;2023-04-19T05:15:20;98489.47;;;6.98;100.00
72721;BME280;60835;50.974;10.322;2023-04-19T05:17:47;98498.50;;;7.05;100.00
72721;BME280;60835;50.974;10.322;2023-04-19T05:20:14;98510.88;;;7.14;100.00
72721;BME280;60835;50.974;10.322;2023-04-19T05:22:40;98509.25;;;7.23;100.00
72721;BME280;60835;50.974;10.322;2023-04-19T05:25:08;98536.66;;;7.20;100.00
72721;BME280;60835;50.974;10.322;2023-04-19T05:27:35;98568.59;;;6.86;100.00
72721;BME280;60835;50.974;10.322;2023-04-19T05:30:02;98567.94;;;6.93;100.00
72721;BME280;60835;50.974;10.322;2023-04-19T05:32:32;98585.41;;;6.83;100.00
72721;BME280;60835;50.974;10.322;2023-04-19T05:35:00;98563.25;;;7.17;100.00
72721;BME280;60835;50.974;10.322;2023-04-19T05:37:26;98563.03;;;7.30;100.00
72721;BME280;60835;50.974;10.322;2023-04-19T05:39:53;98580.31;;;7.02;100.00
72721;BME280;60835;50.974;10.322;2023-04-19T05:42:20;98574.66;;;7.27;100.00
72721;BME280;60835;50.974;10.322;2023-04-19T05:44:47;98587.44;;;7.11;100.00
72721;BME280;60835;50.974;10.322;2023-04-19T05:47:14;98617.38;;;6.99;100.00
72721;BME280;60835;50.974;10.322;2023-04-19T05:49:42;98620.50;;;6.72;100.00
72721;BME280;60835;50.974;10.322;2023-04-19T05:52:09;98614.13;;;7.07;100.00
72721;BME280;60835;50.974;10.322;2023-04-19T05:54:36;98616.81;;;7.16;100.00
72721;BME280;60835;50.974;10.322;2023-04-19T05:57:03;98664.13;;;6.75;100.00
72721;BME280;60835;50.974;10.322;2023-04-19T05:59:29;98665.75;;;6.87;100.00
72721;BME280;60835;50.974;10.322;2023-04-19T06:01:56;98695.88;;;6.83;100.00
72721;BME280;60835;50.974;10.322;2023-04-19T06:04:23;98719.38;;;6.64;100.00
72721;BME280;60835;50.974;10.322;2023-04-19T06:06:50;98731.34;;;6.89;100.00
72721;BME280;60835;50.974;10.322;2023-04-19T06:09:17;98758.25;;;6.92;100.00
72721;BME280;60835;50.974;10.322;2023-04-19T06:11:44;98763.59;;;7.02;100.00
72721;BME280;60835;50.974;10.322;2023-04-19T06:14:16;98783.06;;;7.10;100.00
72721;BME280;60835;50.974;10.322;2023-04-19T06:16:44;98794.94;;;7.36;100.00
72721;BME280;60835;50.974;10.322;2023-04-19T06:19:11;98808.25;;;7.87;100.00
72721;BME280;60835;50.974;10.322;2023-04-19T06:21:38;98845.13;;;8.29;100.00
72721;BME280;60835;50.974;10.322;2023-04-19T06:24:05;98863.47;;;9.21;100.00
72721;BME280;60835;50.974;10.322;2023-04-19T06:26:32;98921.63;;;9.10;100.00
72721;BME280;60835;50.974;10.322;2023-04-19T06:28:58;98971.34;;;9.05;100.00
72721;BME280;60835;50.974;10.322;2023-04-19T06:31:25;98992.41;;;10.34;100.00
72721;BME280;60835;50.974;10.322;2023-04-19T06:33:51;99001.81;;;10.08;100.00
72721;BME280;60835;50.974;10.322;2023-04-19T06:36:18;99003.16;;;9.83;100.00
72721;BME280;60835;50.974;10.322;2023-04-19T06:38:45;98991.25;;;10.65;100.00
72721;BME280;60835;50.974;10.322;2023-04-19T06:41:12;98983.53;;;11.00;100.00
72721;BME280;60835;50.974;10.322;2023-04-19T06:43:38;98942.75;;;10.84;100.00
72721;BME280;60835;50.974;10.322;2023-04-19T06:46:06;98897.56;;;10.58;100.00
72721;BME280;60835;50.974;10.322;2023-04-19T06:48:33;98990.03;;;10.69;100.00
72721;BME280;60835;50.974;10.322;2023-04-19T06:51:00;99247.34;;;10.52;100.00
72721;BME280;60835;50.974;10.322;2023-04-19T06:53:30;99372.28;;;11.26;100.00
72721;BME280;60835;50.974;10.322;2023-04-19T06:55:57;99472.78;;;10.14;100.00
72721;BME280;60835;50.974;10.322;2023-04-19T06:58:26;99499.69;;;9.76;100.00
72721;BME280;60835;50.974;10.322;2023-04-19T07:00:53;99509.50;;;9.86;100.00
72721;BME280;60835;50.974;10.322;2023-04-19T07:03:20;99515.38;;;9.89;100.00
72721;BME280;60835;50.974;10.322;2023-04-19T07:05:47;99547.25;;;9.32;100.00
72721;BME280;60835;50.974;10.322;2023-04-19T07:08:14;99551.59;;;9.44;100.00
72721;BME280;60835;50.974;10.322;2023-04-19T07:10:41;99572.22;;;11.01;100.00
72721;BME280;60835;50.974;10.322;2023-04-19T07:13:09;99795.00;;;10.96;100.00
72721;BME280;60835;50.974;10.322;2023-04-19T07:15:36;99854.03;;;10.76;100.00
72721;BME280;60835;50.974;10.322;2023-04-19T07:18:03;99878.03;;;11.18;100.00
72721;BME280;60835;50.974;10.322;2023-04-19T07:20:30;99897.22;;;11.75;100.00
72721;BME280;60835;50.974;10.322;2023-04-19T07:23:00;99908.31;;;11.58;100.00
72721;BME280;60835;50.974;10.322;2023-04-19T07:25:27;99903.38;;;10.77;100.00
72721;BME280;60835;50.974;10.322;2023-04-19T07:27:53;99912.28;;;10.98;100.00
72721;BME280;60835;50.974;10.322;2023-04-19T07:30:20;99911.91;;;10.81;100.00
72721;BME280;60835;50.974;10.322;2023-04-19T07:32:47;99911.22;;;9.51;100.00
72721;BME280;60835;50.974;10.322;2023-04-19T07:35:14;99885.72;;;11.32;100.00
72721;BME280;60835;50.974;10.322;2023-04-19T07:37:40;99906.22;;;11.19;100.00
72721;BME280;60835;50.974;10.322;2023-04-19T07:40:08;99904.94;;;10.80;100.00
72721;BME280;60835;50.974;10.322;2023-04-19T07:42:34;99906.59;;;10.81;100.00
72721;BME280;60835;50.974;10.322;2023-04-19T07:45:01;99904.75;;;10.37;100.00
72721;BME280;60835;50.974;10.322;2023-04-19T07:47:28;99907.47;;;11.46;100.00
72721;BME280;60835;50.974;10.322;2023-04-19T07:49:55;99905.41;;;10.96;100.00
72721;BME280;60835;50.974;10.322;2023-04-19T07:52:21;99898.19;;;10.76;100.00
72721;BME280;60835;50.974;10.322;2023-04-19T07:54:48;99900.88;;;10.30;100.00
72721;BME280;60835;50.974;10.322;2023-04-19T07:57:15;99906.47;;;11.16;100.00
72721;BME280;60835;50.974;10.322;2023-04-19T07:59:42;99919.03;;;11.99;100.00
72721;BME280;60835;50.974;10.322;2023-04-19T08:02:09;99926.22;;;11.88;100.00
72721;BME280;60835;50.974;10.322;2023-04-19T08:04:36;99926.94;;;11.79;100.00
72721;BME280;60835;50.974;10.322;2023-04-19T08:07:03;99914.72;;;12.19;100.00
72721;BME280;60835;50.974;10.322;2023-04-19T08:09:31;99911.56;;;12.46;100.00
72721;BME280;60835;50.974;10.322;2023-04-19T08:11:58;99923.84;;;11.74;100.00
72721;BME280;60835;50.974;10.322;2023-04-19T08:14:27;99917.91;;;12.84;100.00
72721;BME280;60835;50.974;10.322;2023-04-19T08:17:13;99906.19;;;14.24;100.00
72721;BME280;60835;50.974;10.322;2023-04-19T08:19:54;99911.16;;;13.51;100.00
72721;BME280;60835;50.974;10.322;2023-04-19T08:22:21;99905.06;;;14.17;100.00
72721;BME280;60835;50.974;10.322;2023-04-19T08:24:48;99907.25;;;13.45;100.00
72721;BME280;60835;50.974;10.322;2023-04-19T08:27:15;99915.44;;;13.82;100.00
72721;BME280;60835;50.974;10.322;2023-04-19T08:29:42;99915.94;;;13.66;100.00
72721;BME280;60835;50.974;10.322;2023-04-19T08:32:10;99893.69;;;14.44;100.00
72721;BME280;60835;50.974;10.322;2023-04-19T08:34:38;99907.22;;;13.35;100.00
72721;BME280;60835;50.974;10.322;2023-04-19T08:37:05;99903.34;;;13.59;100.00
72721;BME280;60835;50.974;10.322;2023-04-19T08:39:32;99898.84;;;12.70;97.36
72721;BME280;60835;50.974;10.322;2023-04-19T08:42:02;99893.25;;;14.58;100.00
72721;BME280;60835;50.974;10.322;2023-04-19T08:44:38;99888.97;;;13.99;99.09
72721;BME280;60835;50.974;10.322;2023-04-19T08:47:25;99880.97;;;14.84;97.16
72721;BME280;60835;50.974;10.322;2023-04-19T08:49:59;99885.75;;;14.34;96.04
72721;BME280;60835;50.974;10.322;2023-04-19T08:52:46;99875.09;;;15.08;95.85
72721;BME280;60835;50.974;10.322;2023-04-19T08:55:24;99859.94;;;16.24;92.76
72721;BME280;60835;50.974;10.322;2023-04-19T08:57:51;99878.97;;;16.03;89.31
72721;BME280;60835;50.974;10.322;2023-04-19T09:00:18;99876.94;;;14.71;89.12
72721;BME280;60835;50.974;10.322;2023-04-19T09:02:51;99877.91;;;15.06;92.33
72721;BME280;60835;50.974;10.322;2023-04-19T09:05:20;99869.00;;;14.51;92.13
72721;BME280;60835;50.974;10.322;2023-04-19T09:07:47;99866.44;;;15.06;90.38
72721;BME280;60835;50.974;10.322;2023-04-19T09:10:15;99854.38;;;15.56;91.81
72721;BME280;60835;50.974;10.322;2023-04-19T09:12:42;99856.41;;;16.41;92.06
72721;BME280;60835;50.974;10.322;2023-04-19T09:15:09;99855.25;;;15.47;84.84
72721;BME280;60835;50.974;10.322;2023-04-19T09:17:36;99853.78;;;15.08;87.14
72721;BME280;60835;50.974;10.322;2023-04-19T09:20:04;99860.00;;;14.99;86.80
72721;BME280;60835;50.974;10.322;2023-04-19T09:22:32;99846.75;;;16.48;86.17
72721;BME280;60835;50.974;10.322;2023-04-19T09:24:58;99851.31;;;15.51;82.50
72721;BME280;60835;50.974;10.322;2023-04-19T09:27:30;99851.72;;;13.71;83.70
72721;BME280;60835;50.974;10.322;2023-04-19T09:29:58;99838.97;;;14.96;83.41
72721;BME280;60835;50.974;10.322;2023-04-19T09:32:25;99841.13;;;15.10;83.49
72721;BME280;60835;50.974;10.322;2023-04-19T09:34:54;99823.28;;;16.34;83.94
72721;BME280;60835;50.974;10.322;2023-04-19T09:37:21;99816.25;;;16.84;82.02
72721;BME280;60835;50.974;10.322;2023-04-19T09:40:21;99817.84;;;15.74;78.91
72721;BME280;60835;50.974;10.322;2023-04-19T09:42:48;99817.53;;;16.21;77.57
72721;BME280;60835;50.974;10.322;2023-04-19T09:45:18;99812.84;;;16.15;73.24
72721;BME280;60835;50.974;10.322;2023-04-19T09:48:05;99812.13;;;16.98;72.99
72721;BME280;60835;50.974;10.322;2023-04-19T09:50:35;99805.44;;;18.16;76.93
72721;BME280;60835;50.974;10.322;2023-04-19T09:53:19;99826.09;;;17.26;73.98
72721;BME280;60835;50.974;10.322;2023-04-19T09:55:46;99802.59;;;17.53;70.94
72721;BME280;60835;50.974;10.322;2023-04-19T09:58:26;99804.03;;;17.32;67.31
72721;BME280;60835;50.974;10.322;2023-04-19T10:01:03;99814.50;;;16.67;65.60
72721;BME280;60835;50.974;10.322;2023-04-19T10:03:40;99804.97;;;15.25;63.92
72721;BME280;60835;50.974;10.322;2023-04-19T10:06:08;99800.34;;;15.98;66.19
72721;BME280;60835;50.974;10.322;2023-04-19T10:08:53;99806.50;;;15.10;66.52
72721;BME280;60835;50.974;10.322;2023-04-19T10:11:21;99800.34;;;16.75;69.81
72721;BME280;60835;50.974;10.322;2023-04-19T10:13:48;99805.31;;;15.40;70.36
72721;BME280;60835;50.974;10.322;2023-04-19T10:16:19;99791.78;;;16.37;74.12
72721;BME280;60835;50.974;10.322;2023-04-19T10:18:50;99799.34;;;15.28;76.02
72721;BME280;60835;50.974;10.322;2023-04-19T10:21:18;99792.88;;;16.86;74.48
72721;BME280;60835;50.974;10.322;2023-04-19T10:23:46;99790.31;;;17.27;74.24
72721;BME280;60835;50.974;10.322;2023-04-19T10:26:13;99774.34;;;17.91;75.33
72721;BME280;60835;50.974;10.322;2023-04-19T10:28:40;99771.91;;;15.89;66.55
72721;BME280;60835;50.974;10.322;2023-04-19T10:31:10;99766.75;;;15.34;70.46
72721;BME280;60835;50.974;10.322;2023-04-19T10:33:37;99776.56;;;15.16;72.72
72721;BME280;60835;50.974;10.322;2023-04-19T10:36:06;99772.78;;;14.37;71.26
72721;BME280;60835;50.974;10.322;2023-04-19T10:41:03;99742.03;;;17.69;74.42
72721;BME280;60835;50.974;10.322;2023-04-19T10:43:44;99743.91;;;17.76;71.53
72721;BME280;60835;50.974;10.322;2023-04-19T10:48:51;99749.84;;;17.22;66.25
72721;BME280;60835;50.974;10.322;2023-04-19T10:53:58;99745.38;;;16.13;73.18
72721;BME280;60835;50.974;10.322;2023-04-19T11:04:02;99721.63;;;17.51;70.89
72721;BME280;60835;50.974;10.322;2023-04-19T11:06:30;99737.09;;;16.91;69.25
72721;BME280;60835;50.974;10.322;2023-04-19T11:08:57;99724.50;;;16.42;72.28
72721;BME280;60835;50.974;10.322;2023-04-19T11:11:23;99722.19;;;16.47;72.42
72721;BME280;60835;50.974;10.322;2023-04-19T11:13:54;99726.31;;;14.12;73.82
72721;BME280;60835;50.974;10.322;2023-04-19T11:16:21;99718.63;;;16.64;79.30
72721;BME280;60835;50.974;10.322;2023-04-19T11:19:07;99720.91;;;14.41;79.31
72721;BME280;60835;50.974;10.322;2023-04-19T11:21:56;99711.81;;;15.23;80.82
72721;BME280;60835;50.974;10.322;2023-04-19T11:24:21;99713.41;;;15.69;84.94
72721;BME280;60835;50.974;10.322;2023-04-19T11:26:47;99709.78;;;15.78;83.48
72721;BME280;60835;50.974;10.322;2023-04-19T11:29:14;99714.09;;;15.97;81.13
72721;BME280;60835;50.974;10.322;2023-04-19T11:31:44;99704.47;;;15.78;82.26
72721;BME280;60835;50.974;10.322;2023-04-19T11:34:12;99696.63;;;16.44;74.73
72721;BME280;60835;50.974;10.322;2023-04-19T11:36:48;99704.53;;;15.08;74.58
72721;BME280;60835;50.974;10.322;2023-04-19T11:39:15;99686.09;;;15.32;76.03
72721;BME280;60835;50.974;10.322;2023-04-19T11:41:42;99693.81;;;14.73;74.79
72721;BME280;60835;50.974;10.322;2023-04-19T11:44:12;99679.44;;;16.47;73.97
72721;BME280;60835;50.974;10.322;2023-04-19T11:46:40;99674.84;;;15.90;73.97
72721;BME280;60835;50.974;10.322;2023-04-19T11:49:07;99677.25;;;16.84;75.80
72721;BME280;60835;50.974;10.322;2023-04-19T11:51:34;99685.94;;;15.16;72.60
72721;BME280;60835;50.974;10.322;2023-04-19T11:54:01;99683.66;;;15.21;75.01
72721;BME280;60835;50.974;10.322;2023-04-19T11:56:27;99671.94;;;17.00;75.83
72721;BME280;60835;50.974;10.322;2023-04-19T11:58:56;99677.41;;;16.33;77.75
72721;BME280;60835;50.974;10.322;2023-04-19T12:01:23;99678.63;;;15.53;78.88
72721;BME280;60835;50.974;10.322;2023-04-19T12:03:52;99662.22;;;16.75;75.20
72721;BME280;60835;50.974;10.322;2023-04-19T12:06:29;99661.75;;;15.53;77.28
72721;BME280;60835;50.974;10.322;2023-04-19T12:08:57;99666.63;;;16.09;80.94
72721;BME280;60835;50.974;10.322;2023-04-19T12:11:40;99661.06;;;15.33;80.73
72721;BME280;60835;50.974;10.322;2023-04-19T12:14:11;99653.66;;;15.19;83.86
72721;BME280;60835;50.974;10.322;2023-04-19T12:16:39;99662.91;;;15.50;82.57
72721;BME280;60835;50.974;10.322;2023-04-19T12:19:09;99659.44;;;14.97;80.70
72721;BME280;60835;50.974;10.322;2023-04-19T12:21:39;99666.94;;;14.12;80.94
72721;BME280;60835;50.974;10.322;2023-04-19T12:24:06;99656.88;;;14.42;84.02
72721;BME280;60835;50.974;10.322;2023-04-19T12:26:33;99662.81;;;13.90;87.28
72721;BME280;60835;50.974;10.322;2023-04-19T12:29:00;99671.28;;;13.76;89.34
72721;BME280;60835;50.974;10.322;2023-04-19T12:31:27;99665.44;;;14.36;88.70
72721;BME280;60835;50.974;10.322;2023-04-19T12:33:54;99660.97;;;14.00;87.40
72721;BME280;60835;50.974;10.322;2023-04-19T12:36:20;99664.72;;;14.07;91.27
72721;BME280;60835;50.974;10.322;2023-04-19T12:38:48;99661.22;;;14.07;90.33
72721;BME280;60835;50.974;10.322;2023-04-19T12:41:14;99655.88;;;13.70;88.30
72721;BME280;60835;50.974;10.322;2023-04-19T12:43:41;99651.88;;;13.93;92.59
72721;BME280;60835;50.974;10.322;2023-04-19T12:46:08;99640.00;;;15.65;91.41
72721;BME280;60835;50.974;10.322;2023-04-19T12:48:34;99617.09;;;17.61;77.30
72721;BME280;60835;50.974;10.322;2023-04-19T12:51:01;99627.66;;;17.06;76.09
72721;BME280;60835;50.974;10.322;2023-04-19T12:53:27;99639.13;;;15.39;72.98
72721;BME280;60835;50.974;10.322;2023-04-19T12:55:54;99637.44;;;13.59;73.64
72721;BME280;60835;50.974;10.322;2023-04-19T12:58:21;99628.03;;;14.01;75.24
72721;BME280;60835;50.974;10.322;2023-04-19T13:00:48;99634.38;;;14.00;77.21
72721;BME280;60835;50.974;10.322;2023-04-19T13:03:15;99630.38;;;14.14;80.16
72721;BME280;60835;50.974;10.322;2023-04-19T13:05:42;99634.38;;;13.54;78.90
72721;BME280;60835;50.974;10.322;2023-04-19T13:08:09;99629.03;;;14.54;80.64